Главная страница
METAR-TAF:

METAR-TAF

Аэропорты :

Киркенес, Норвегия

широта: 69-44N, долгота: 029-54E, высота над уровнем моря: 9 м

Текущие метеонаблюдения

Эта сводка был подготовлена 29 минут назад, в 17:20 UTC
Ветер 16 Узел от северо-западный
Температура -7°C
Влажность 79%
Давление 1001 hPa
Видимость 10 км и более
небольшая облачность на высоте 2800 фута

METAR: ENKR 281720Z 31016KT 9999 FEW028 M07/M10 Q1001 RMK WIND 731FT 29027KT

Время: 19:49 (17:49 UTC)

Прогноз

Эта сводка был подготовлена 49 минут назад, в 17:00 UTC
Прогноз действительный с 28-го 18 UTC до 29-го 03 UTC
Ветер 18 Узел от северо-западный
Видимость 10 км и более
небольшая облачность на высоте 1500 фута
Рассеянная облачность на высоте 2500 фута
временами
С 28-го 18 UTC до 29-го 03 UTC
Ветер 18 Узел от северо-западный с порывами до 28 Узел
Видимость: 0700 м
на высоте 400 фута
ливневые снегопады, низовая метель

TAF: ENKR 281700Z 2818/2903 32018KT 9999 FEW015 BKN025 TEMPO 2818/2903 32018G28KT 0700 SHSN BLSN VV004

Метеонаблюдения и прогнозы для более 4000 аэропортов (сводки METAR и TAF).

Имеющиеся станции представлены на карте желтыми и красными точками.

Чтобы увидеть название станции, наведите на нее мышь.

Затем щелкните, чтобы увидеть метеонаблюдения и метеопрогнозы.

Управление картой: чтобы увеличить масштаб, щелкните зеленые кнопки с черным крестиком; чтобы уменьшить масштаб, щелкните зеленую кнопку с тире; для просмотра соседних карт щелкайте зеленые стрелки.


METAR-TAF: